createdAt,value
2023-02-06T06:01:17.664Z,77.60
2023-02-06T06:06:21.293Z,78.20
2023-02-06T06:11:25.296Z,78.20
2023-02-06T06:16:30.277Z,78.30
2023-02-06T06:21:34.123Z,78.20
2023-02-06T06:26:37.724Z,78.40
2023-02-06T06:31:42.934Z,78.50
2023-02-06T06:36:46.810Z,78.70
2023-02-06T06:41:50.368Z,78.80
2023-02-06T06:46:55.321Z,79.00
2023-02-06T06:51:58.883Z,79.10
2023-02-06T06:57:02.454Z,79.10
2023-02-06T07:02:07.847Z,79.80
2023-02-06T07:07:11.704Z,79.20
2023-02-06T07:17:20.847Z,78.60
2023-02-06T07:22:25.624Z,79.80
2023-02-06T07:32:36.183Z,79.20
2023-02-06T07:37:39.753Z,79.60
2023-02-06T07:47:52.099Z,78.90
2023-02-06T07:57:59.513Z,79.20
2023-02-06T08:03:05.353Z,79.70
2023-02-06T08:13:14.416Z,78.80
2023-02-06T08:18:19.347Z,79.40
2023-02-06T08:28:26.977Z,79.20
2023-02-06T08:33:31.955Z,79.10
2023-02-06T08:38:36.307Z,79.50
2023-02-06T08:43:39.947Z,79.70
2023-02-06T08:48:45.128Z,79.70
2023-02-06T08:53:48.987Z,80.20
2023-02-06T09:04:00.279Z,79.20
2023-02-06T09:09:05.054Z,79.30
2023-02-06T09:14:10.514Z,79.70
2023-02-06T09:19:15.645Z,80.00
2023-02-06T09:24:19.689Z,79.70
2023-02-06T09:34:29.153Z,78.60
2023-02-06T09:39:33.420Z,77.00
2023-02-06T09:44:38.077Z,77.60
2023-02-06T09:49:46.016Z,76.30
2023-02-06T09:55:00.400Z,73.10
2023-02-06T10:00:12.619Z,71.50
2023-02-06T10:05:29.097Z,72.00
2023-02-06T10:10:38.508Z,71.00
2023-02-06T10:15:47.146Z,69.10
2023-02-06T10:20:56.929Z,68.30
2023-02-06T10:26:12.393Z,67.00
2023-02-06T10:31:45.070Z,67.40
2023-02-06T10:37:06.920Z,83.20
2023-02-06T10:42:21.722Z,65.40
2023-02-06T10:47:37.475Z,64.90
2023-02-06T10:52:43.423Z,79.00
2023-02-06T10:57:48.403Z,63.60
2023-02-06T11:03:06.788Z,80.80
2023-02-06T11:08:20.425Z,63.70
2023-02-06T11:13:29.255Z,82.30
2023-02-06T11:18:36.418Z,62.30
2023-02-06T11:23:42.264Z,61.80
2023-02-06T11:28:55.490Z,61.30
2023-02-06T11:33:59.715Z,60.90
2023-02-06T11:39:07.665Z,59.90
2023-02-06T11:44:15.636Z,59.20
2023-02-06T11:49:26.773Z,58.30
2023-02-06T11:54:35.761Z,58.30
2023-02-06T11:59:52.214Z,57.70
2023-02-06T12:05:03.184Z,57.10
2023-02-06T12:10:16.273Z,56.80
2023-02-06T12:15:44.795Z,56.30
2023-02-06T12:20:53.045Z,56.00
2023-02-06T12:26:01.801Z,55.80
2023-02-06T12:31:11.137Z,55.20
2023-02-06T12:36:18.319Z,55.00
2023-02-06T12:41:39.970Z,54.60
2023-02-06T12:46:47.348Z,54.10
2023-02-06T12:51:59.345Z,54.60
2023-02-06T12:57:12.886Z,53.60
2023-02-06T13:02:26.073Z,53.10
2023-02-06T13:07:32.241Z,52.70
2023-02-06T13:12:39.329Z,52.50
2023-02-06T13:17:44.860Z,52.50
2023-02-06T13:22:51.060Z,51.70
2023-02-06T13:27:57.091Z,51.50
2023-02-06T13:33:10.477Z,51.00
2023-02-06T13:38:29.563Z,50.90
2023-02-06T13:43:34.894Z,50.20
2023-02-06T13:49:05.101Z,50.50
2023-02-06T13:54:37.290Z,50.00
2023-02-06T13:59:47.409Z,50.10
2023-02-06T14:04:52.626Z,50.10
2023-02-06T14:10:09.799Z,49.90
2023-02-06T14:15:26.311Z,50.10
2023-02-06T14:20:39.283Z,50.10
2023-02-06T14:26:04.622Z,49.90
2023-02-06T14:31:19.483Z,49.70
2023-02-06T14:36:37.378Z,49.60
2023-02-06T14:41:41.676Z,49.20
2023-02-06T14:46:47.239Z,49.50
2023-02-06T14:51:52.904Z,49.60
2023-02-06T14:56:58.760Z,49.70
2023-02-06T15:02:14.205Z,49.50
2023-02-06T15:07:25.955Z,49.20
2023-02-06T15:12:32.259Z,49.30
2023-02-06T15:17:38.810Z,49.40
2023-02-06T15:27:48.366Z,48.40
2023-02-06T15:32:55.969Z,49.10
2023-02-06T15:38:05.064Z,49.20
2023-02-06T15:48:19.767Z,49.10
2023-02-06T15:53:40.469Z,49.50
2023-02-06T15:58:44.616Z,49.40
2023-02-06T16:03:53.386Z,49.60
2023-02-06T16:08:59.175Z,49.50
2023-02-06T16:19:29.414Z,64.70
2023-02-06T16:30:29.662Z,61.80
2023-02-06T16:40:37.653Z,62.90
2023-02-06T16:45:42.838Z,48.40
2023-02-06T16:50:48.211Z,48.60
2023-02-06T17:00:57.774Z,49.30
2023-02-06T17:16:19.118Z,50.20
2023-02-06T17:21:24.935Z,50.60
2023-02-06T17:31:34.027Z,50.90
2023-02-06T17:46:50.125Z,68.40
2023-02-06T18:02:03.764Z,52.20
2023-02-06T18:07:08.266Z,52.40
2023-02-06T18:12:11.717Z,53.00
2023-02-06T18:17:17.646Z,52.60
2023-02-06T18:22:22.688Z,67.50
2023-02-06T18:32:32.258Z,53.00
2023-02-06T18:47:58.929Z,53.30
2023-02-06T18:58:08.097Z,53.40
2023-02-06T19:03:13.152Z,54.20
2023-02-06T19:18:37.488Z,53.70
2023-02-06T19:23:43.325Z,53.80
2023-02-06T19:33:53.315Z,54.00
2023-02-06T19:38:59.298Z,54.40
2023-02-06T19:44:04.935Z,54.30
2023-02-06T19:49:11.688Z,54.40
2023-02-06T19:59:22.794Z,54.90
2023-02-06T20:04:30.296Z,55.60
2023-02-06T20:19:43.072Z,55.50
2023-02-06T20:29:51.002Z,55.70
2023-02-06T20:34:56.139Z,56.10
2023-02-06T20:50:10.633Z,56.70
2023-02-06T21:00:18.718Z,56.90
2023-02-06T21:05:23.757Z,56.90
2023-02-06T21:20:38.454Z,57.30
2023-02-06T21:35:52.861Z,57.80
2023-02-06T21:51:10.276Z,58.30
2023-02-06T21:56:17.658Z,58.80
2023-02-06T22:01:23.429Z,58.50
2023-02-06T22:06:28.953Z,58.60
2023-02-06T22:16:36.949Z,58.70
2023-02-06T22:21:42.693Z,58.90
2023-02-06T22:31:50.500Z,59.00
2023-02-06T22:36:55.758Z,59.20
2023-02-06T22:52:28.668Z,59.50
2023-02-06T22:57:33.826Z,60.10
2023-02-06T23:07:42.868Z,59.80
2023-02-06T23:12:46.513Z,60.50
2023-02-06T23:22:55.497Z,60.30
2023-02-06T23:27:59.572Z,60.80
